Time;durP1;ratioP1;P1;durP2;ratioP2;P2;SDS_P1;SDS_P2;PMS_P1;PMS_P2;Temp;Humidity;BMP_temperature;BMP_pressure;BME280_temperature;BME280_humidity;BME280_pressure;Samples;Min_cycle;Max_cycle;Signal;HPM_P1;HPM_P2
2022/01/13 00:00:19;;;;;;;29.02;8.10;;;5.20;99.90;;;;;;5044594;28;20021;-73
2022/01/13 00:02:45;;;;;;;33.90;9.43;;;5.20;99.90;;;;;;5026465;28;20060;-72
2022/01/13 00:05:11;;;;;;;43.55;9.77;;;5.20;99.90;;;;;;5026613;28;20089;-74
2022/01/13 00:07:37;;;;;;;28.35;8.52;;;5.20;99.90;;;;;;5044431;28;20038;-72
2022/01/13 00:10:04;;;;;;;41.22;10.55;;;5.40;99.90;;;;;;5044256;28;20081;-73
2022/01/13 00:12:35;;;;;;;36.58;10.48;;;5.20;99.90;;;;;;5044235;28;20033;-72
2022/01/13 00:25:17;;;;;;;30.85;9.07;;;5.30;99.90;;;;;;5044214;28;20036;-75
2022/01/13 00:27:48;;;;;;;55.05;9.85;;;5.30;99.90;;;;;;5044402;28;20081;-73
2022/01/13 00:30:17;;;;;;;31.23;9.70;;;5.40;99.90;;;;;;5044410;28;20128;-75
2022/01/13 00:32:44;;;;;;;31.63;10.60;;;5.30;99.90;;;;;;5047504;28;20018;-73
2022/01/13 00:35:11;;;;;;;31.27;9.70;;;5.30;99.90;;;;;;5030235;28;20026;-72
2022/01/13 00:37:37;;;;;;;40.65;10.25;;;5.30;99.90;;;;;;5047594;28;20033;-73
2022/01/13 00:40:05;;;;;;;40.53;9.45;;;5.30;99.90;;;;;;5029665;28;20057;-72
2022/01/13 00:42:32;;;;;;;39.03;10.75;;;5.30;99.90;;;;;;5047731;28;20062;-72
2022/01/13 00:44:58;;;;;;;37.00;10.05;;;5.30;99.90;;;;;;5047408;28;20028;-72
2022/01/13 00:47:23;;;;;;;72.13;9.55;;;5.30;99.90;;;;;;5047668;28;20061;-73
2022/01/13 00:49:49;;;;;;;33.15;9.10;;;5.30;99.90;;;;;;5047767;28;20386;-73
2022/01/13 00:52:14;;;;;;;29.13;8.60;;;5.30;99.90;;;;;;5047225;28;20056;-73
2022/01/13 00:54:40;;;;;;;43.70;9.63;;;5.40;99.90;;;;;;5047562;28;20081;-72
2022/01/13 00:57:07;;;;;;;39.75;10.50;;;5.40;99.90;;;;;;5047562;28;20176;-73
2022/01/13 00:59:32;;;;;;;44.10;11.65;;;5.40;99.90;;;;;;5047075;28;20033;-73
2022/01/13 01:01:58;;;;;;;36.75;9.65;;;5.40;99.90;;;;;;5047240;28;20091;-72
2022/01/13 01:04:25;;;;;;;39.25;10.10;;;5.40;99.90;;;;;;5047246;28;20040;-71
2022/01/13 01:06:51;;;;;;;34.50;7.82;;;5.40;99.90;;;;;;5046853;28;20033;-71
2022/01/13 01:09:27;;;;;;;31.40;7.97;;;5.40;99.90;;;;;;5046926;28;20064;-73
2022/01/13 01:11:55;;;;;;;34.42;10.10;;;5.40;99.90;;;;;;5047290;28;20029;-72
2022/01/13 01:14:21;;;;;;;32.60;11.43;;;5.40;99.90;;;;;;5046548;28;20029;-74
2022/01/13 01:16:47;;;;;;;36.13;10.48;;;5.40;99.90;;;;;;5047268;28;20028;-72
2022/01/13 01:19:14;;;;;;;51.92;12.80;;;5.40;99.90;;;;;;5046918;28;20021;-73
2022/01/13 01:24:30;;;;;;;35.72;9.18;;;5.40;99.90;;;;;;5046825;28;20029;-73
2022/01/13 01:27:02;;;;;;;40.17;9.77;;;5.40;99.90;;;;;;5046782;28;20022;-71
2022/01/13 01:29:43;;;;;;;46.78;11.82;;;5.40;99.90;;;;;;5046238;28;20037;-71
2022/01/13 01:32:11;;;;;;;24.58;9.40;;;5.40;99.90;;;;;;5046970;28;20045;-72
2022/01/13 01:37:16;;;;;;;37.72;9.05;;;5.40;99.90;;;;;;5046775;28;20028;-72
2022/01/13 01:39:44;;;;;;;50.20;10.77;;;5.40;99.90;;;;;;5046905;28;20033;-74
2022/01/13 01:42:10;;;;;;;52.38;10.70;;;5.40;99.90;;;;;;5028240;28;20049;-72
2022/01/13 01:44:40;;;;;;;43.63;13.25;;;5.40;99.90;;;;;;5046052;28;20045;-71
2022/01/13 01:47:08;;;;;;;41.15;9.68;;;5.40;99.90;;;;;;5046668;28;20025;-72
2022/01/13 01:49:39;;;;;;;45.30;10.48;;;5.30;99.90;;;;;;5046242;28;20063;-72
2022/01/13 01:52:06;;;;;;;57.92;10.68;;;5.40;99.90;;;;;;5046326;28;20815;-73
2022/01/13 01:54:32;;;;;;;66.28;12.60;;;5.40;99.90;;;;;;5046492;28;20055;-73
2022/01/13 01:56:58;;;;;;;54.75;11.82;;;5.40;99.90;;;;;;5046183;28;20021;-72
2022/01/13 01:59:28;;;;;;;45.50;12.25;;;5.40;99.90;;;;;;5046400;28;20592;-74
2022/01/13 02:01:55;;;;;;;39.00;12.32;;;5.40;99.90;;;;;;5046159;28;20107;-73
2022/01/13 02:04:22;;;;;;;70.47;10.85;;;5.40;99.90;;;;;;5045862;28;20486;-73
2022/01/13 02:06:47;;;;;;;33.92;10.82;;;5.40;99.90;;;;;;5046235;28;20048;-71
2022/01/13 02:09:17;;;;;;;50.58;10.43;;;5.40;99.90;;;;;;5028225;28;20033;-74
2022/01/13 02:11:45;;;;;;;36.13;8.40;;;5.40;99.90;;;;;;5045693;28;20017;-74
2022/01/13 02:16:54;;;;;;;62.42;8.52;;;5.40;99.90;;;;;;5045638;28;20079;-73
2022/01/13 02:19:22;;;;;;;35.97;9.50;;;5.40;99.90;;;;;;5045542;28;20061;-73
2022/01/13 02:21:48;;;;;;;42.92;10.98;;;5.40;99.90;;;;;;5045898;28;20033;-73
2022/01/13 02:24:14;;;;;;;33.90;7.28;;;5.40;99.90;;;;;;5045297;28;20030;-73
2022/01/13 02:26:39;;;;;;;39.80;10.25;;;5.40;99.90;;;;;;5028122;28;20029;-73
2022/01/13 02:29:05;;;;;;;32.17;12.18;;;5.40;99.90;;;;;;5045895;28;20037;-73
2022/01/13 02:31:30;;;;;;;34.22;8.18;;;5.40;99.90;;;;;;5045638;28;20037;-73
2022/01/13 02:33:56;;;;;;;38.50;9.60;;;5.40;99.90;;;;;;5045859;28;20485;-74
2022/01/13 02:36:23;;;;;;;64.10;9.00;;;5.40;99.90;;;;;;5045505;28;20045;-73
2022/01/13 02:38:54;;;;;;;35.83;9.60;;;5.40;99.90;;;;;;5027097;28;20394;-71
2022/01/13 02:41:24;;;;;;;26.90;8.52;;;5.40;99.90;;;;;;5045389;28;20381;-73
2022/01/13 02:43:55;;;;;;;58.13;8.52;;;5.40;99.90;;;;;;5045449;28;20032;-74
2022/01/13 02:46:54;;;;;;;37.25;8.95;;;5.40;99.90;;;;;;5045375;28;20028;-71
2022/01/13 02:49:20;;;;;;;26.55;9.27;;;5.40;99.90;;;;;;5045368;28;20069;-72
2022/01/13 02:51:51;;;;;;;64.28;10.95;;;5.30;99.90;;;;;;5044925;28;20029;-70
2022/01/13 02:54:17;;;;;;;32.33;9.73;;;5.40;99.90;;;;;;5041995;28;20097;-74
2022/01/13 02:56:44;;;;;;;31.60;8.85;;;5.30;99.90;;;;;;5044387;28;20052;-74
2022/01/13 02:59:12;;;;;;;34.08;8.50;;;5.30;99.90;;;;;;5044529;28;20052;-74
2022/01/13 03:01:39;;;;;;;33.47;7.75;;;5.40;99.90;;;;;;5044928;28;20030;-74
2022/01/13 03:04:07;;;;;;;41.85;9.88;;;5.30;99.90;;;;;;5044661;28;20030;-72
2022/01/13 03:06:36;;;;;;;27.48;8.25;;;5.30;99.90;;;;;;5044396;28;20029;-72
2022/01/13 03:09:05;;;;;;;34.85;9.45;;;5.40;99.90;;;;;;5044134;28;20064;-72
2022/01/13 03:11:35;;;;;;;56.80;9.35;;;5.40;99.90;;;;;;5026853;28;20033;-72
2022/01/13 03:14:02;;;;;;;27.27;8.50;;;5.40;99.90;;;;;;5044132;28;20442;-71
2022/01/13 03:16:28;;;;;;;48.20;11.32;;;5.30;99.90;;;;;;5044061;28;20028;-72
2022/01/13 03:18:54;;;;;;;56.13;9.20;;;5.40;99.90;;;;;;5044349;28;20026;-72
2022/01/13 07:35:47;;;;;;;20.27;8.52;;;5.30;99.90;;;;;;5018027;28;20046;-73
2022/01/13 07:38:16;;;;;;;35.47;10.80;;;5.30;99.90;;;;;;5024606;28;20040;-75
2022/01/13 07:40:42;;;;;;;28.20;6.68;;;5.30;99.90;;;;;;5007598;28;20030;-73
2022/01/13 07:43:08;;;;;;;39.95;9.30;;;5.30;99.90;;;;;;5028647;28;20030;-74
2022/01/13 07:45:34;;;;;;;28.63;9.18;;;5.40;99.90;;;;;;5028147;28;20026;-73
2022/01/13 07:47:59;;;;;;;32.95;8.65;;;5.40;99.90;;;;;;5026823;28;20046;-74
2022/01/13 07:50:25;;;;;;;30.92;9.43;;;5.30;99.90;;;;;;5027652;28;20032;-74
2022/01/13 07:52:51;;;;;;;30.48;9.30;;;5.40;99.90;;;;;;5028701;28;20030;-73
2022/01/13 07:55:16;;;;;;;38.22;11.57;;;5.50;99.90;;;;;;5028114;28;20026;-74
2022/01/13 07:57:43;;;;;;;65.22;9.07;;;5.30;99.90;;;;;;5007484;28;20533;-75
2022/01/13 08:00:11;;;;;;;19.55;7.28;;;5.30;99.90;;;;;;5027071;28;20036;-73
2022/01/13 08:02:37;;;;;;;36.83;9.73;;;5.30;99.90;;;;;;5024520;28;20049;-73
2022/01/13 08:05:03;;;;;;;31.08;8.55;;;5.30;99.90;;;;;;5028224;28;20053;-74
2022/01/13 08:07:29;;;;;;;30.48;11.40;;;5.30;99.90;;;;;;5009879;28;20030;-74
2022/01/13 08:09:55;;;;;;;47.78;9.02;;;5.30;99.90;;;;;;5028402;28;20543;-74
2022/01/13 08:12:21;;;;;;;33.20;7.72;;;5.40;99.90;;;;;;5028417;28;20026;-73
2022/01/13 08:14:47;;;;;;;20.50;8.50;;;5.40;99.90;;;;;;5028389;28;20036;-73
2022/01/13 08:19:45;;;;;;;32.25;9.52;;;5.30;99.90;;;;;;5027205;28;20021;-73
2022/01/13 08:20:00;;;;;;;34.33;9.75;;;5.40;99.90;;;;;;5023707;28;20037;-74
2022/01/13 08:22:25;;;;;;;38.50;10.27;;;5.40;99.90;;;;;;5027553;28;20038;-73
2022/01/13 08:27:56;;;;;;;18.80;7.22;;;5.40;99.90;;;;;;5023745;28;20084;-76
2022/01/13 08:30:22;;;;;;;35.20;10.85;;;5.40;99.90;;;;;;5016048;28;20121;-74
2022/01/13 08:32:48;;;;;;;27.42;7.78;;;5.40;99.90;;;;;;5020374;28;20105;-73
2022/01/13 08:35:13;;;;;;;28.20;9.35;;;5.30;99.90;;;;;;5026689;28;20521;-75
2022/01/13 08:37:40;;;;;;;25.80;8.25;;;5.30;99.90;;;;;;5027480;28;20045;-75
2022/01/13 08:40:10;;;;;;;33.92;9.13;;;5.30;99.90;;;;;;5027779;28;20030;-77
2022/01/13 08:42:37;;;;;;;27.05;8.52;;;5.30;99.90;;;;;;5020290;28;20101;-74
2022/01/13 08:45:05;;;;;;;30.27;8.90;;;5.30;99.90;;;;;;5009271;28;20033;-74
2022/01/13 08:47:31;;;;;;;24.33;7.95;;;5.30;99.90;;;;;;5021552;28;20034;-73
2022/01/13 08:49:57;;;;;;;40.80;9.77;;;5.30;99.90;;;;;;5021817;28;20042;-73
2022/01/13 08:52:23;;;;;;;25.08;8.40;;;5.30;99.90;;;;;;5008896;28;20083;-73
2022/01/13 08:54:50;;;;;;;25.40;7.38;;;5.30;99.90;;;;;;5025297;28;20049;-74
2022/01/13 08:57:16;;;;;;;18.90;8.25;;;5.30;99.90;;;;;;5027074;28;20026;-74
2022/01/13 08:59:41;;;;;;;19.13;8.50;;;5.30;99.90;;;;;;5009486;28;20032;-77
2022/01/13 09:02:09;;;;;;;37.17;8.82;;;5.30;99.90;;;;;;5026512;28;20036;-75
2022/01/13 09:04:34;;;;;;;34.42;9.85;;;5.30;99.90;;;;;;5026856;28;20089;-76
2022/01/13 09:07:01;;;;;;;34.22;9.52;;;5.40;99.90;;;;;;5009943;28;20065;-74
2022/01/13 09:09:26;;;;;;;36.17;9.68;;;5.40;99.90;;;;;;5010038;28;20113;-77
2022/01/13 09:11:52;;;;;;;33.38;8.73;;;5.30;99.90;;;;;;5026360;28;20041;-76
2022/01/13 09:14:24;;;;;;;30.10;8.63;;;5.40;99.90;;;;;;5027461;28;20028;-77
2022/01/13 09:16:49;;;;;;;24.65;6.45;;;5.40;99.90;;;;;;5009908;28;20030;-75
2022/01/13 09:19:17;;;;;;;23.13;7.30;;;5.40;99.90;;;;;;5027117;28;20034;-75
2022/01/13 09:21:47;;;;;;;26.60;8.30;;;5.40;99.90;;;;;;5027462;28;20052;-76
2022/01/13 09:24:17;;;;;;;26.52;7.53;;;5.40;99.90;;;;;;5025855;28;20037;-75
2022/01/13 09:26:43;;;;;;;22.88;7.53;;;5.40;99.90;;;;;;5022026;28;20104;-74
2022/01/13 09:29:11;;;;;;;23.45;6.53;;;5.40;99.90;;;;;;5027143;28;20042;-76
2022/01/13 09:31:39;;;;;;;26.40;8.07;;;5.50;99.90;;;;;;5025795;28;20033;-75
2022/01/13 09:34:07;;;;;;;16.58;6.85;;;5.50;99.90;;;;;;5026582;28;20073;-74
2022/01/13 09:36:35;;;;;;;21.17;5.90;;;5.50;99.90;;;;;;5024129;28;20037;-76
2022/01/13 09:39:05;;;;;;;20.05;7.40;;;5.50;99.90;;;;;;5023367;28;20044;-74
2022/01/13 09:41:32;;;;;;;23.40;7.65;;;5.50;99.90;;;;;;5009207;28;20094;-74
2022/01/13 09:44:04;;;;;;;25.58;8.13;;;5.60;99.90;;;;;;5026663;28;20022;-74
2022/01/13 09:46:30;;;;;;;23.02;7.43;;;5.60;99.90;;;;;;5026130;28;20033;-75
2022/01/13 09:48:56;;;;;;;21.83;7.18;;;5.60;99.90;;;;;;5007608;28;20046;-74
2022/01/13 09:51:25;;;;;;;19.60;6.45;;;5.60;99.90;;;;;;5026677;28;20030;-75
2022/01/13 09:53:51;;;;;;;17.50;7.05;;;5.60;99.90;;;;;;5008183;28;20037;-74
2022/01/13 09:56:17;;;;;;;23.27;6.43;;;5.60;99.90;;;;;;5026767;28;20026;-74
2022/01/13 09:58:44;;;;;;;18.65;6.60;;;5.70;99.90;;;;;;5025019;28;20025;-75
2022/01/13 10:01:14;;;;;;;19.38;6.82;;;5.70;99.90;;;;;;5020474;28;20034;-74
2022/01/13 10:03:40;;;;;;;20.35;6.65;;;5.80;99.90;;;;;;5021661;28;20097;-74
2022/01/13 10:06:18;;;;;;;27.73;5.95;;;5.80;99.90;;;;;;5006891;28;20037;-77
2022/01/13 10:08:57;;;;;;;18.38;5.70;;;5.80;99.90;;;;;;5010278;28;20042;-76
2022/01/13 10:11:44;;;;;;;24.75;7.80;;;5.80;99.90;;;;;;5025358;28;20497;-74
2022/01/13 10:16:23;;;;;;;25.58;7.88;;;5.80;99.90;;;;;;5019804;28;20117;-76
2022/01/13 10:17:08;;;;;;;20.58;7.78;;;5.80;99.90;;;;;;5025165;28;20038;-76
2022/01/13 10:19:42;;;;;;;16.98;6.50;;;5.80;99.90;;;;;;5004359;28;20116;-75
2022/01/13 10:22:16;;;;;;;18.33;6.72;;;5.80;99.90;;;;;;5017841;28;21639;-74
2022/01/13 10:24:50;;;;;;;20.45;6.43;;;5.80;99.90;;;;;;5012969;28;20026;-74
2022/01/13 10:32:38;;;;;;;22.83;6.18;;;5.80;99.90;;;;;;4991296;28;20058;-77
2022/01/13 10:35:10;;;;;;;18.95;7.22;;;5.80;99.90;;;;;;4982841;28;20034;-74
2022/01/13 10:37:46;;;;;;;18.55;7.55;;;5.90;99.90;;;;;;4979474;28;20386;-74
2022/01/13 10:40:17;;;;;;;24.50;6.80;;;5.80;99.90;;;;;;4986378;28;20046;-75
2022/01/13 10:45:35;;;;;;;18.10;6.85;;;5.80;99.90;;;;;;4995424;28;20038;-74
2022/01/13 10:48:17;;;;;;;19.75;7.13;;;5.80;99.90;;;;;;4985875;28;20042;-76
2022/01/13 10:50:49;;;;;;;17.30;5.35;;;5.90;99.90;;;;;;4995251;28;20035;-71
2022/01/13 10:53:27;;;;;;;19.58;6.55;;;5.70;99.90;;;;;;5003324;28;20058;-73
2022/01/13 10:55:54;;;;;;;39.80;5.50;;;5.80;99.90;;;;;;4986045;28;20085;-72
2022/01/13 10:58:27;;;;;;;24.45;8.20;;;5.80;99.90;;;;;;4992047;28;20425;-72
2022/01/13 11:00:55;;;;;;;20.10;7.30;;;5.60;99.90;;;;;;4994482;28;20030;-72
2022/01/13 11:03:23;;;;;;;17.17;7.72;;;5.70;99.90;;;;;;5000836;28;20026;-72
2022/01/13 11:05:55;;;;;;;17.30;6.45;;;5.60;99.90;;;;;;5004242;28;20027;-77
2022/01/13 11:08:25;;;;;;;26.55;7.38;;;5.70;99.90;;;;;;5003394;28;20043;-73
2022/01/13 11:10:53;;;;;;;13.40;5.75;;;5.70;99.90;;;;;;4992574;28;20499;-74
2022/01/13 11:13:21;;;;;;;18.10;6.72;;;5.70;99.90;;;;;;4999791;28;20029;-74
2022/01/13 11:15:55;;;;;;;16.83;6.35;;;5.70;99.90;;;;;;4998009;28;20057;-73
2022/01/13 11:18:21;;;;;;;;;;;5.70;99.90;;;;;;4986650;28;20065;-73
2022/01/13 11:20:49;;;;;;;25.45;6.32;;;5.70;99.90;;;;;;4986078;28;19961;-73
2022/01/13 11:23:17;;;;;;;32.55;6.32;;;5.60;99.90;;;;;;4985825;28;20032;-72
2022/01/13 11:25:48;;;;;;;15.18;5.70;;;5.70;99.90;;;;;;4986317;28;20384;-74
2022/01/13 11:28:15;;;;;;;21.08;5.00;;;5.70;99.90;;;;;;5000806;28;20053;-73
2022/01/13 11:30:43;;;;;;;20.20;7.38;;;5.70;99.90;;;;;;4964940;29;20051;-70
2022/01/13 11:33:08;;;;;;;15.13;6.07;;;5.70;99.90;;;;;;4965273;28;20059;-71
2022/01/13 11:35:44;;;;;;;23.33;6.18;;;5.80;99.90;;;;;;4966402;29;20027;-72
2022/01/13 11:38:15;;;;;;;15.40;6.05;;;5.80;99.90;;;;;;4966479;28;20499;-72
2022/01/13 11:40:45;;;;;;;21.33;6.88;;;5.80;99.90;;;;;;4966793;29;20171;-72
2022/01/13 11:43:41;;;;;;;21.38;7.18;;;5.80;99.90;;;;;;4965310;29;20043;-73
2022/01/13 11:46:21;;;;;;;21.10;6.35;;;5.80;99.90;;;;;;4956929;29;20043;-73
2022/01/13 11:49:11;;;;;;;19.95;6.78;;;5.80;99.90;;;;;;4966540;28;20125;-73
2022/01/13 11:51:57;;;;;;;24.38;7.07;;;5.80;99.90;;;;;;4966245;28;20035;-73
2022/01/13 11:54:27;;;;;;;19.75;5.57;;;5.90;99.90;;;;;;4965193;29;20031;-73
2022/01/13 11:57:21;;;;;;;21.30;6.38;;;5.90;99.90;;;;;;4966550;28;20035;-72
2022/01/13 12:00:07;;;;;;;20.73;6.32;;;5.90;99.90;;;;;;4966191;28;20051;-74
2022/01/13 12:02:41;;;;;;;23.98;6.47;;;5.80;99.90;;;;;;4959182;28;20035;-74
2022/01/13 12:05:14;;;;;;;;;;;5.80;99.90;;;;;;4949988;29;20035;-74
2022/01/13 12:07:45;;;;;;;22.00;7.63;;;5.90;99.90;;;;;;4966247;28;19929;-76
2022/01/13 12:10:29;;;;;;;19.15;6.70;;;5.90;99.90;;;;;;4966574;28;20047;-74
2022/01/13 12:12:55;;;;;;;25.00;6.82;;;5.90;99.90;;;;;;4965377;29;20034;-74
2022/01/13 12:15:26;;;;;;;24.83;7.47;;;5.90;99.90;;;;;;4966194;28;20043;-73
2022/01/13 12:17:57;;;;;;;17.27;6.97;;;5.90;99.90;;;;;;4966156;28;20046;-75
2022/01/13 12:20:51;;;;;;;22.33;7.35;;;5.90;99.90;;;;;;4965900;28;20108;-76
2022/01/13 12:23:39;;;;;;;19.57;7.47;;;6.00;99.90;;;;;;4966497;28;20063;-74
2022/01/13 12:26:33;;;;;;;22.00;6.88;;;6.00;99.90;;;;;;4966126;28;20267;-74
2022/01/13 12:29:14;;;;;;;23.92;6.38;;;6.00;99.90;;;;;;4984203;28;20043;-74
2022/01/13 12:32:00;;;;;;;21.75;6.50;;;6.00;99.90;;;;;;4968150;29;20062;-76
2022/01/13 12:34:28;;;;;;;17.92;7.72;;;6.00;99.90;;;;;;4969217;28;20082;-74
2022/01/13 12:36:58;;;;;;;15.60;7.07;;;6.10;99.90;;;;;;4969610;29;20055;-74
2022/01/13 12:39:25;;;;;;;19.98;7.18;;;6.10;99.90;;;;;;4969652;28;20027;-75
2022/01/13 12:42:02;;;;;;;23.85;7.03;;;6.20;99.90;;;;;;4969170;28;20031;-76
2022/01/13 12:47:14;;;;;;;18.13;6.22;;;6.10;99.90;;;;;;4969431;29;20039;-75
2022/01/13 12:49:42;;;;;;;22.88;7.20;;;6.10;99.90;;;;;;4969527;28;20035;-75
2022/01/13 12:52:08;;;;;;;29.40;8.02;;;6.10;99.90;;;;;;4969576;29;20443;-78
2022/01/13 12:54:34;;;;;;;21.73;6.93;;;6.10;99.90;;;;;;4969001;28;20024;-76
2022/01/13 12:57:05;;;;;;;22.15;6.85;;;6.20;99.90;;;;;;4968017;29;20054;-73
2022/01/13 12:59:32;;;;;;;36.60;8.20;;;6.10;99.90;;;;;;4969453;28;20116;-74
2022/01/13 13:01:59;;;;;;;18.15;6.25;;;6.10;99.90;;;;;;4968851;28;20024;-73
2022/01/13 13:04:25;;;;;;;18.52;5.43;;;6.10;99.90;;;;;;4969163;28;20055;-73
2022/01/13 13:06:52;;;;;;;22.25;7.85;;;6.20;99.90;;;;;;4969150;28;20035;-73
2022/01/13 13:09:25;;;;;;;14.95;6.60;;;6.10;99.90;;;;;;4968626;28;20050;-74
2022/01/13 13:11:56;;;;;;;18.50;8.13;;;6.20;99.90;;;;;;4967296;28;20034;-74
2022/01/13 13:17:37;;;;;;;30.67;7.72;;;6.20;99.90;;;;;;4968763;29;20403;-72
2022/01/13 13:20:21;;;;;;;18.73;7.65;;;6.20;99.90;;;;;;4973447;28;20031;-74
2022/01/13 13:22:53;;;;;;;19.77;6.70;;;6.10;99.90;;;;;;4968134;28;20178;-73
2022/01/13 13:25:41;;;;;;;25.63;6.63;;;6.20;99.90;;;;;;4966137;28;20023;-74
2022/01/13 13:28:51;;;;;;;24.88;7.00;;;6.20;99.90;;;;;;4964827;28;20590;-74
2022/01/13 13:31:22;;;;;;;21.08;7.15;;;6.20;99.90;;;;;;4957735;29;20053;-77
2022/01/13 13:34:07;;;;;;;19.13;7.55;;;6.20;99.90;;;;;;4961199;28;20032;-75
2022/01/13 13:36:36;;;;;;;22.52;7.60;;;6.20;99.90;;;;;;4976533;28;20039;-75
2022/01/13 13:39:07;;;;;;;18.75;6.68;;;6.20;99.90;;;;;;4964988;28;20169;-77
2022/01/13 13:41:45;;;;;;;23.23;7.30;;;6.20;99.90;;;;;;4957299;28;20506;-76
2022/01/13 13:44:18;;;;;;;13.50;6.03;;;6.20;99.90;;;;;;4964906;29;20031;-78
2022/01/13 13:46:54;;;;;;;20.07;8.10;;;6.20;99.90;;;;;;4967667;28;20476;-77
2022/01/13 13:49:21;;;;;;;20.13;6.78;;;6.20;99.90;;;;;;4967261;29;20034;-74
2022/01/13 13:52:08;;;;;;;25.73;8.48;;;6.20;99.90;;;;;;4964702;28;20032;-77
2022/01/13 13:54:49;;;;;;;27.02;7.93;;;6.20;99.90;;;;;;4947785;29;20062;-75
2022/01/13 13:57:20;;;;;;;37.63;8.10;;;6.20;99.90;;;;;;4962470;29;20034;-75
2022/01/13 13:59:52;;;;;;;22.20;7.25;;;6.20;99.90;;;;;;4967824;28;20034;-76
2022/01/13 14:02:33;;;;;;;23.85;8.00;;;6.30;99.90;;;;;;4966050;28;20023;-74
2022/01/13 14:05:03;;;;;;;18.55;7.53;;;6.30;99.90;;;;;;4981055;28;20075;-75
2022/01/13 14:07:29;;;;;;;27.95;7.55;;;6.30;99.90;;;;;;4959026;28;20111;-74
2022/01/13 14:10:25;;;;;;;26.27;8.48;;;6.30;99.90;;;;;;4945948;29;20078;-75
2022/01/13 14:12:59;;;;;;;21.80;7.38;;;6.30;99.90;;;;;;4950559;29;20062;-74
2022/01/13 14:15:30;;;;;;;14.82;6.88;;;6.30;99.90;;;;;;4948665;29;20024;-74
2022/01/13 14:18:08;;;;;;;24.88;9.10;;;6.30;99.90;;;;;;4961776;29;20023;-74
2022/01/13 14:20:45;;;;;;;22.05;7.85;;;6.30;99.90;;;;;;4963197;29;20369;-75
2022/01/13 14:23:26;;;;;;;21.90;7.57;;;6.30;99.90;;;;;;4967437;28;20479;-75
2022/01/13 14:26:07;;;;;;;25.55;6.40;;;6.30;99.90;;;;;;4967567;28;20058;-74
2022/01/13 14:28:33;;;;;;;33.35;7.88;;;6.30;99.90;;;;;;4967532;28;20042;-73
2022/01/13 14:31:18;;;;;;;30.65;8.77;;;6.20;99.90;;;;;;4965525;28;20495;-74
2022/01/13 14:33:45;;;;;;;15.32;6.07;;;6.20;99.90;;;;;;4966421;29;20521;-74
2022/01/13 14:36:19;;;;;;;24.08;7.53;;;6.20;99.90;;;;;;4966663;28;20100;-76
2022/01/13 14:39:01;;;;;;;24.13;8.35;;;6.20;99.90;;;;;;4967017;28;20040;-75
2022/01/13 14:41:26;;;;;;;19.80;6.57;;;6.20;99.90;;;;;;4966010;29;20091;-72
2022/01/13 14:44:08;;;;;;;23.80;8.40;;;6.20;99.90;;;;;;4965917;28;20034;-73
2022/01/13 14:46:42;;;;;;;24.50;8.65;;;6.20;99.90;;;;;;4966421;29;20058;-73
2022/01/13 14:49:09;;;;;;;18.52;7.97;;;6.20;99.90;;;;;;4963212;29;20042;-74
2022/01/13 14:51:37;;;;;;;23.15;6.72;;;6.30;99.90;;;;;;4966392;28;20039;-74
2022/01/13 14:54:03;;;;;;;23.45;8.80;;;6.20;99.90;;;;;;4966668;28;20034;-73
2022/01/13 14:56:29;;;;;;;26.08;8.05;;;6.20;99.90;;;;;;4963967;28;20118;-72
2022/01/13 14:58:55;;;;;;;21.42;6.53;;;6.20;99.90;;;;;;4966016;28;20383;-71
2022/01/13 15:01:21;;;;;;;22.08;7.20;;;6.30;99.90;;;;;;4966707;29;20032;-72
2022/01/13 15:03:48;;;;;;;28.50;8.48;;;6.30;99.90;;;;;;4967124;29;20055;-73
2022/01/13 15:06:15;;;;;;;27.30;8.57;;;6.30;99.90;;;;;;4965384;29;20027;-73
2022/01/13 15:08:42;;;;;;;28.55;7.80;;;6.20;99.90;;;;;;4966193;28;20065;-73
2022/01/13 15:11:08;;;;;;;30.77;9.70;;;6.20;99.90;;;;;;4966749;28;20082;-72
2022/01/13 15:13:34;;;;;;;24.80;8.75;;;6.20;99.90;;;;;;4965809;28;20023;-74
2022/01/13 15:16:01;;;;;;;32.88;9.32;;;6.20;99.90;;;;;;4978556;28;20071;-72
2022/01/13 15:18:28;;;;;;;30.98;8.43;;;6.20;99.90;;;;;;4961706;28;20099;-72
2022/01/13 15:20:58;;;;;;;26.52;8.32;;;6.20;99.90;;;;;;4961161;28;20091;-73
2022/01/13 15:23:31;;;;;;;21.75;7.43;;;6.20;99.90;;;;;;4958236;29;20026;-73
2022/01/13 15:25:57;;;;;;;24.92;7.55;;;6.20;99.90;;;;;;4965113;28;20039;-73
2022/01/13 15:28:23;;;;;;;18.83;7.13;;;6.20;99.90;;;;;;4965276;28;20126;-72
2022/01/13 15:30:51;;;;;;;29.55;8.95;;;6.10;99.90;;;;;;4965774;28;20055;-73
2022/01/13 15:33:21;;;;;;;18.92;7.30;;;6.20;99.90;;;;;;4965186;28;20081;-73
2022/01/13 15:35:48;;;;;;;24.83;8.55;;;6.10;99.90;;;;;;4985124;28;20027;-73
2022/01/13 15:38:15;;;;;;;29.60;8.75;;;6.20;99.90;;;;;;4976240;28;20043;-73
2022/01/13 15:40:43;;;;;;;26.70;8.32;;;6.20;99.90;;;;;;4965756;28;20364;-79
2022/01/13 15:43:09;;;;;;;29.80;7.88;;;6.20;99.90;;;;;;4966076;29;20039;-73
2022/01/13 15:45:35;;;;;;;30.92;9.63;;;6.20;99.90;;;;;;4965275;28;20567;-73
2022/01/13 15:48:01;;;;;;;30.58;9.02;;;6.20;99.90;;;;;;4965618;29;20035;-74
2022/01/13 15:50:26;;;;;;;26.50;9.35;;;6.20;99.90;;;;;;4965354;29;20039;-73
2022/01/13 15:52:52;;;;;;;22.92;8.15;;;6.20;99.90;;;;;;4964309;29;20054;-72
2022/01/13 15:55:18;;;;;;;26.27;7.47;;;6.20;99.90;;;;;;4964552;29;20514;-74
2022/01/13 15:57:44;;;;;;;26.98;8.70;;;6.20;99.90;;;;;;4966320;29;20035;-73
2022/01/13 16:00:15;;;;;;;27.67;8.35;;;6.20;99.90;;;;;;4965068;28;20046;-72
2022/01/13 16:02:44;;;;;;;41.40;9.75;;;6.20;99.90;;;;;;4966530;28;20341;-73
2022/01/13 16:05:11;;;;;;;26.88;9.65;;;6.20;99.90;;;;;;4967650;28;20038;-72
2022/01/13 16:07:37;;;;;;;30.75;8.88;;;6.10;99.90;;;;;;4968118;29;20034;-73
2022/01/13 16:10:08;;;;;;;22.10;8.60;;;6.30;99.90;;;;;;4969114;28;20047;-74
2022/01/13 16:12:35;;;;;;;29.85;10.93;;;6.30;99.90;;;;;;4969656;28;20051;-74
2022/01/13 16:15:11;;;;;;;25.70;8.70;;;6.30;99.90;;;;;;4969148;28;20031;-73
2022/01/13 16:17:37;;;;;;;21.23;8.20;;;6.30;99.90;;;;;;4969664;29;20390;-73
2022/01/13 16:20:03;;;;;;;23.58;8.52;;;6.40;99.90;;;;;;4968987;29;20031;-73
2022/01/13 16:22:29;;;;;;;33.42;9.82;;;6.40;99.90;;;;;;4968534;28;20050;-73
2022/01/13 16:24:55;;;;;;;29.83;8.90;;;6.30;99.90;;;;;;4968511;28;20027;-73
2022/01/13 16:27:21;;;;;;;30.42;9.82;;;6.40;99.90;;;;;;4968322;28;20054;-74
2022/01/13 16:30:03;;;;;;;26.17;9.15;;;6.40;99.90;;;;;;4967304;29;20059;-74
2022/01/13 16:32:33;;;;;;;34.53;8.80;;;6.40;99.90;;;;;;4966156;29;20059;-73
2022/01/13 16:35:01;;;;;;;35.95;8.52;;;6.40;99.90;;;;;;4967728;28;20024;-74
2022/01/13 16:37:27;;;;;;;19.25;6.57;;;6.40;99.90;;;;;;4967107;29;20027;-74
2022/01/13 16:39:54;;;;;;;23.95;7.82;;;6.40;99.90;;;;;;4967368;28;20083;-73
2022/01/13 16:42:22;;;;;;;23.77;9.23;;;6.40;99.90;;;;;;4966177;28;20042;-75
2022/01/13 16:44:48;;;;;;;33.65;9.60;;;6.40;99.90;;;;;;4964138;29;20031;-74
2022/01/13 16:47:16;;;;;;;18.33;9.38;;;6.40;99.90;;;;;;4964929;29;20086;-74
2022/01/13 16:49:46;;;;;;;26.13;9.15;;;6.40;99.90;;;;;;4968070;28;20051;-77
2022/01/13 16:52:15;;;;;;;28.02;9.25;;;6.40;99.90;;;;;;4967320;29;20197;-74
2022/01/13 16:54:45;;;;;;;36.85;10.93;;;6.40;99.90;;;;;;4968644;28;20034;-75
2022/01/13 16:57:13;;;;;;;28.58;10.50;;;6.40;99.90;;;;;;4967470;29;20046;-72
2022/01/13 16:59:38;;;;;;;26.60;8.85;;;6.40;99.90;;;;;;4969200;28;20042;-73
2022/01/13 17:02:04;;;;;;;35.22;10.20;;;6.40;99.90;;;;;;4968653;29;20115;-72
2022/01/13 17:04:30;;;;;;;25.27;10.43;;;6.40;99.90;;;;;;4968814;28;20105;-72
2022/01/13 17:06:57;;;;;;;32.42;10.10;;;6.40;99.90;;;;;;4968657;29;20023;-73
2022/01/13 17:09:23;;;;;;;36.58;11.30;;;6.40;99.90;;;;;;4967500;28;20049;-73
2022/01/13 17:11:50;;;;;;;22.02;8.45;;;6.40;99.90;;;;;;4968034;28;20074;-73
2022/01/13 17:14:16;;;;;;;39.22;11.32;;;6.40;99.90;;;;;;4968787;28;20038;-74
2022/01/13 17:16:43;;;;;;;34.03;9.85;;;6.40;99.90;;;;;;4968272;29;20027;-74
2022/01/13 17:19:13;;;;;;;40.80;8.68;;;6.40;99.90;;;;;;4967390;29;20035;-73
2022/01/13 17:21:41;;;;;;;34.72;9.55;;;6.40;99.90;;;;;;4968726;28;20439;-73
2022/01/13 17:24:10;;;;;;;22.38;8.55;;;6.40;99.90;;;;;;4967281;28;20865;-72
2022/01/13 17:26:36;;;;;;;36.20;10.63;;;6.40;99.90;;;;;;4967922;28;20531;-73
2022/01/13 17:29:03;;;;;;;34.15;11.23;;;6.40;99.90;;;;;;4967507;29;20067;-73
2022/01/13 17:31:29;;;;;;;39.17;10.45;;;6.40;99.90;;;;;;4967497;28;20047;-72
2022/01/13 17:33:55;;;;;;;26.77;8.88;;;6.40;99.90;;;;;;4968358;28;20154;-73
2022/01/13 17:36:25;;;;;;;38.33;11.07;;;6.40;99.90;;;;;;4967744;28;20027;-72
2022/01/13 17:38:51;;;;;;;29.30;10.30;;;6.40;99.90;;;;;;4967798;28;20123;-72
2022/01/13 17:41:17;;;;;;;40.47;12.50;;;6.40;99.90;;;;;;4968220;29;20492;-72
2022/01/13 17:43:44;;;;;;;33.40;11.32;;;6.40;99.90;;;;;;4966242;29;20075;-74
2022/01/13 17:46:10;;;;;;;37.70;11.32;;;6.40;99.90;;;;;;4967654;28;20124;-72
2022/01/13 17:48:37;;;;;;;26.15;9.60;;;6.40;99.90;;;;;;4968165;28;20046;-72